CSF7 weather

Ottawa / Casselman (Shea Field)
Ottawa, Ontario, Canada

Public forecast

Using degrees Celsius for public forecast. Weather courtesy of forecast.io.

Closest aviation weather report (METAR) to Ottawa / Casselman (Shea Field)

Closest report is Ottawa Macdonald-Cartier International Airport, 21.1 nm (39.0 km) W. Retrieved 2019/11/18 10:43 UTC (9 minutes ago):

CYOW 181043Z 04010KT 8SM -SN BKN023 OVC036 M06/M10 A3003 RMK SC5SC3 SLP178

Closest aviation forecast (TAF) to Ottawa / Casselman (Shea Field)

Closest forecast is Ottawa Macdonald-Cartier International Airport, 21.1 nm (39.0 km) W. Retrieved 2019/11/18 09:42 UTC (1 hour ago):

TAF TAF CYOW 180838Z 1809/1906 05008KT P6SM OVC040 TEMPO 1809/1814 BKN020 OVC030 FM181400 07008KT P6SM SCT020 BKN025 FM190000 05008KT P6SM FEW030 BKN180 FM190200 35006KT P6SM BKN025 OVC150 RMK NXT FCST BY 181200Z